createdAt,value
2019-05-21T00:00:35.078Z,21.70
2019-05-21T00:01:35.099Z,21.70
2019-05-21T00:02:35.135Z,22.50
2019-05-21T00:03:35.102Z,22.70
2019-05-21T00:04:35.115Z,22.40
2019-05-21T00:05:35.121Z,22.20
2019-05-21T00:06:35.127Z,22.00
2019-05-21T00:07:35.142Z,23.30
2019-05-21T00:08:35.149Z,23.10
2019-05-21T00:09:35.154Z,22.60
2019-05-21T00:10:35.164Z,21.80
2019-05-21T00:11:35.173Z,22.30
2019-05-21T00:12:35.173Z,22.70
2019-05-21T00:13:35.186Z,21.30
2019-05-21T00:14:35.194Z,20.40
2019-05-21T00:15:35.216Z,20.90
2019-05-21T00:16:35.220Z,17.90
2019-05-21T00:17:35.221Z,19.10
2019-05-21T00:18:35.226Z,20.00
2019-05-21T00:19:35.242Z,19.10
2019-05-21T00:20:35.294Z,18.80
2019-05-21T00:21:35.255Z,19.40
2019-05-21T00:22:35.405Z,17.20
2019-05-21T00:23:35.275Z,17.10
2019-05-21T00:24:35.296Z,18.00
2019-05-21T00:25:35.285Z,18.50
2019-05-21T00:26:35.300Z,17.50
2019-05-21T00:27:35.307Z,18.90
2019-05-21T00:28:35.317Z,17.00
2019-05-21T00:29:35.326Z,16.70
2019-05-21T00:30:35.408Z,18.40
2019-05-21T00:31:35.344Z,17.60
2019-05-21T00:32:35.346Z,18.00
2019-05-21T00:33:35.358Z,18.00
2019-05-21T00:34:43.664Z,17.30
2019-05-21T00:35:35.373Z,17.80
2019-05-21T00:36:35.381Z,18.10
2019-05-21T00:37:35.401Z,17.40
2019-05-21T00:38:35.396Z,19.00
2019-05-21T00:39:35.415Z,18.00
2019-05-21T00:40:35.414Z,17.70
2019-05-21T00:41:35.425Z,17.70
2019-05-21T00:42:35.432Z,18.20
2019-05-21T00:43:35.439Z,18.10
2019-05-21T00:44:35.477Z,18.00
2019-05-21T00:45:35.458Z,19.00
2019-05-21T00:46:35.469Z,18.10
2019-05-21T00:47:35.476Z,15.80
2019-05-21T00:48:35.484Z,17.40
2019-05-21T00:49:35.488Z,18.00
2019-05-21T00:50:35.498Z,17.90
2019-05-21T00:51:35.513Z,18.00
2019-05-21T00:52:35.523Z,17.90
2019-05-21T00:53:35.526Z,18.90
2019-05-21T00:54:35.559Z,18.20
2019-05-21T00:55:35.538Z,17.60
2019-05-21T00:56:35.555Z,19.90
2019-05-21T00:57:35.556Z,18.90
2019-05-21T00:58:35.591Z,17.60
2019-05-21T00:59:35.575Z,19.80
2019-05-21T01:00:35.578Z,19.50
2019-05-21T01:01:35.592Z,19.60
2019-05-21T01:02:35.599Z,19.70
2019-05-21T01:03:35.616Z,20.50
2019-05-21T01:04:35.619Z,20.40
2019-05-21T01:05:35.622Z,20.40
2019-05-21T01:06:35.652Z,14.90
2019-05-21T01:07:35.640Z,19.50
2019-05-21T01:08:35.660Z,19.60
2019-05-21T01:09:35.657Z,20.10
2019-05-21T01:10:35.672Z,21.10
2019-05-21T01:11:35.678Z,21.10
2019-05-21T01:12:35.681Z,21.00
2019-05-21T01:13:35.692Z,22.20
2019-05-21T01:14:35.703Z,20.80
2019-05-21T01:15:35.744Z,21.00
2019-05-21T01:16:35.717Z,22.50
2019-05-21T01:17:35.944Z,23.30
2019-05-21T01:18:35.741Z,22.30
2019-05-21T01:19:35.770Z,22.60
2019-05-21T01:20:35.820Z,22.90
2019-05-21T01:21:35.918Z,22.50
2019-05-21T01:22:35.943Z,23.50
2019-05-21T01:23:36.008Z,24.40
2019-05-21T01:24:35.818Z,23.30
2019-05-21T01:25:35.902Z,23.00
2019-05-21T01:26:35.968Z,24.00
2019-05-21T01:27:35.838Z,22.40
2019-05-21T01:28:35.895Z,24.10
2019-05-21T01:29:35.820Z,24.20
2019-05-21T01:30:35.840Z,23.00
2019-05-21T01:31:35.846Z,23.70
2019-05-21T01:32:35.852Z,23.40
2019-05-21T01:33:35.862Z,23.50
2019-05-21T01:34:35.945Z,23.00
2019-05-21T01:35:35.878Z,22.30
2019-05-21T01:36:35.883Z,21.50
2019-05-21T01:37:35.893Z,22.10
2019-05-21T01:38:35.899Z,21.50
2019-05-21T01:39:35.907Z,22.10
2019-05-21T01:40:35.918Z,21.50
2019-05-21T01:41:35.932Z,23.30
2019-05-21T01:42:35.936Z,20.10
2019-05-21T01:43:35.938Z,18.90
2019-05-21T01:44:35.954Z,21.40
2019-05-21T01:45:35.962Z,21.70
2019-05-21T01:46:35.980Z,20.70
2019-05-21T01:47:35.973Z,22.10
2019-05-21T01:48:35.991Z,21.90
2019-05-21T01:49:35.993Z,21.60
2019-05-21T01:50:36.007Z,22.10
2019-05-21T01:51:36.011Z,22.80
2019-05-21T01:52:36.012Z,22.20
2019-05-21T01:53:36.021Z,22.30
2019-05-21T01:54:36.031Z,22.60
2019-05-21T01:55:36.044Z,22.30
2019-05-21T01:56:36.054Z,22.90
2019-05-21T01:57:36.057Z,21.80
2019-05-21T01:58:36.064Z,23.60
2019-05-21T01:59:36.077Z,22.10
2019-05-21T02:00:36.082Z,22.30
2019-05-21T02:01:36.085Z,24.80
2019-05-21T02:02:36.098Z,24.90
2019-05-21T02:03:36.112Z,24.10
2019-05-21T02:04:36.201Z,23.60
2019-05-21T02:05:36.122Z,25.00
2019-05-21T02:06:36.218Z,26.10
2019-05-21T02:07:36.147Z,26.50
2019-05-21T02:08:36.166Z,26.20
2019-05-21T02:09:36.157Z,28.10
2019-05-21T02:10:36.174Z,34.90
2019-05-21T02:11:36.198Z,32.30
2019-05-21T02:12:36.177Z,30.20
2019-05-21T02:13:36.188Z,28.20
2019-05-21T02:14:36.203Z,28.40
2019-05-21T02:15:36.208Z,28.70
2019-05-21T02:16:36.398Z,28.50
2019-05-21T02:17:36.224Z,24.80
2019-05-21T02:18:36.233Z,28.40
2019-05-21T02:19:36.277Z,28.00
2019-05-21T02:20:36.253Z,26.90
2019-05-21T02:21:36.259Z,24.50
2019-05-21T02:22:36.275Z,23.90
2019-05-21T02:23:36.273Z,28.10
2019-05-21T02:24:36.282Z,29.50
2019-05-21T02:25:36.289Z,30.10
2019-05-21T02:26:36.307Z,26.80
2019-05-21T02:27:36.315Z,30.00
2019-05-21T02:28:36.318Z,24.70
2019-05-21T02:29:36.313Z,29.80
2019-05-21T02:30:36.334Z,29.80
2019-05-21T02:31:36.351Z,28.10
2019-05-21T02:32:36.351Z,28.50
2019-05-21T02:33:36.358Z,28.30
2019-05-21T02:34:36.366Z,28.30
2019-05-21T02:35:52.935Z,30.30
2019-05-21T02:36:36.379Z,28.70
2019-05-21T02:37:36.480Z,31.00
2019-05-21T02:38:36.398Z,32.60
2019-05-21T02:39:36.452Z,32.20
2019-05-21T02:40:36.415Z,32.70
2019-05-21T02:41:36.418Z,32.80
2019-05-21T02:42:36.450Z,31.80
2019-05-21T02:43:36.435Z,31.20
2019-05-21T02:44:36.450Z,31.80
2019-05-21T02:45:36.470Z,33.00
2019-05-21T02:46:36.466Z,34.10
2019-05-21T02:47:36.478Z,33.00
2019-05-21T02:48:36.504Z,32.00
2019-05-21T02:49:36.487Z,32.20
2019-05-21T02:50:36.491Z,32.90
2019-05-21T02:51:36.510Z,33.30
2019-05-21T02:52:36.517Z,29.90
2019-05-21T02:53:36.519Z,29.70
2019-05-21T02:54:40.704Z,33.00
2019-05-21T02:55:36.537Z,29.30
2019-05-21T02:56:36.547Z,33.40
2019-05-21T02:57:36.549Z,34.10
2019-05-21T02:58:36.562Z,35.10
2019-05-21T02:59:36.571Z,35.90
2019-05-21T03:00:38.864Z,36.50
2019-05-21T03:01:36.588Z,35.60
2019-05-21T03:02:36.600Z,35.00
2019-05-21T03:03:36.605Z,36.10
2019-05-21T03:04:36.610Z,33.80
2019-05-21T03:05:36.623Z,34.30
2019-05-21T03:06:36.636Z,35.70
2019-05-21T03:07:36.670Z,34.80
2019-05-21T03:08:36.649Z,36.70
2019-05-21T03:09:36.653Z,37.80
2019-05-21T03:10:36.663Z,37.30
2019-05-21T03:11:36.670Z,35.70
2019-05-21T03:12:36.698Z,36.60
2019-05-21T03:13:36.750Z,36.20
2019-05-21T03:14:36.695Z,36.40
2019-05-21T03:15:36.701Z,35.10
2019-05-21T03:16:36.710Z,36.30
2019-05-21T03:17:36.809Z,35.70
2019-05-21T03:18:36.724Z,37.90
2019-05-21T03:19:36.755Z,37.40
2019-05-21T03:20:36.742Z,38.30
2019-05-21T03:21:36.753Z,39.30
2019-05-21T03:22:36.773Z,36.90
2019-05-21T03:23:36.775Z,38.10
2019-05-21T03:24:36.785Z,37.50
2019-05-21T03:25:36.795Z,36.50
2019-05-21T03:26:36.796Z,38.40
2019-05-21T03:27:36.787Z,39.50
2019-05-21T03:28:36.822Z,37.20
2019-05-21T03:29:36.821Z,37.10
2019-05-21T03:30:36.871Z,37.50
2019-05-21T03:31:36.837Z,34.60
2019-05-21T03:32:36.840Z,35.90
2019-05-21T03:33:36.846Z,35.80
2019-05-21T03:34:36.854Z,38.80
2019-05-21T03:35:36.875Z,38.40
2019-05-21T03:36:36.865Z,40.70
2019-05-21T03:37:36.883Z,38.50
2019-05-21T03:38:36.891Z,41.20
2019-05-21T03:39:36.902Z,34.00
2019-05-21T03:40:36.924Z,39.30
2019-05-21T03:41:36.914Z,40.30
2019-05-21T03:42:36.913Z,38.00
2019-05-21T03:43:36.936Z,39.30
2019-05-21T03:44:36.942Z,35.10
2019-05-21T03:45:36.965Z,38.40
2019-05-21T03:46:36.979Z,38.40
2019-05-21T03:47:36.967Z,35.60
2019-05-21T03:48:36.968Z,38.50
2019-05-21T03:49:36.988Z,39.20
2019-05-21T03:50:36.996Z,40.10
2019-05-21T03:51:36.995Z,38.80
2019-05-21T03:52:37.006Z,39.10
2019-05-21T03:53:37.018Z,38.20
2019-05-21T03:54:37.020Z,38.00
2019-05-21T03:55:37.038Z,36.80
2019-05-21T03:56:37.037Z,36.30
2019-05-21T03:57:37.042Z,37.40
2019-05-21T03:58:37.081Z,38.30
2019-05-21T03:59:37.061Z,35.50
2019-05-21T04:00:37.066Z,36.00
2019-05-21T04:01:37.095Z,36.70
2019-05-21T04:02:37.087Z,37.60
2019-05-21T04:03:37.095Z,36.50
2019-05-21T04:04:37.104Z,36.80
2019-05-21T04:05:37.106Z,36.90
2019-05-21T04:06:51.445Z,37.00
2019-05-21T04:07:37.123Z,39.10
2019-05-21T04:08:37.133Z,36.10
2019-05-21T04:09:37.143Z,35.20
2019-05-21T04:10:37.157Z,35.70
2019-05-21T04:11:37.223Z,36.60
2019-05-21T04:12:37.173Z,35.10
2019-05-21T04:13:37.176Z,36.80
2019-05-21T04:14:37.197Z,36.40
2019-05-21T04:15:37.195Z,35.50
2019-05-21T04:16:37.214Z,37.20
2019-05-21T04:17:37.209Z,36.10
2019-05-21T04:18:37.261Z,38.20
2019-05-21T04:19:37.229Z,34.90
2019-05-21T04:20:37.233Z,34.00
2019-05-21T04:21:37.286Z,34.00
2019-05-21T04:22:37.264Z,37.50
2019-05-21T04:23:37.257Z,37.70
2019-05-21T04:24:37.274Z,36.50
2019-05-21T04:25:37.281Z,37.40
2019-05-21T04:27:37.290Z,36.70
2019-05-21T04:28:37.298Z,35.50
2019-05-21T04:29:37.316Z,33.90
2019-05-21T04:30:37.322Z,36.00
2019-05-21T04:31:37.327Z,38.10
2019-05-21T04:32:37.329Z,42.80
2019-05-21T04:34:37.350Z,37.50
2019-05-21T04:35:37.356Z,36.50
2019-05-21T04:36:37.411Z,36.80
2019-05-21T04:37:37.377Z,37.00
2019-05-21T04:38:37.382Z,35.40
2019-05-21T04:39:37.465Z,31.20
2019-05-21T04:40:37.390Z,30.80
2019-05-21T04:41:37.403Z,32.10
2019-05-21T04:42:37.415Z,33.50
2019-05-21T04:43:37.422Z,30.80
2019-05-21T04:44:37.428Z,33.00
2019-05-21T04:45:37.439Z,31.90
2019-05-21T04:46:37.537Z,25.80
2019-05-21T04:47:37.455Z,27.90
2019-05-21T04:48:37.454Z,27.60
2019-05-21T04:49:37.474Z,26.60
2019-05-21T04:50:37.484Z,31.90
2019-05-21T04:51:37.489Z,27.50
2019-05-21T04:52:37.498Z,32.80
2019-05-21T04:53:37.505Z,34.80
2019-05-21T04:54:37.586Z,34.70
2019-05-21T04:55:37.513Z,35.40
2019-05-21T04:56:37.571Z,34.10
2019-05-21T04:57:37.587Z,31.20
2019-05-21T04:58:37.544Z,33.40
2019-05-21T04:59:37.551Z,35.80
2019-05-21T05:00:37.569Z,32.40
2019-05-21T05:01:37.564Z,32.70
2019-05-21T05:02:37.575Z,33.50
2019-05-21T05:03:37.585Z,33.30
2019-05-21T05:04:37.592Z,28.50
2019-05-21T05:05:37.604Z,28.40
2019-05-21T05:06:37.621Z,31.40
2019-05-21T05:07:37.621Z,32.10
2019-05-21T05:08:37.626Z,31.00
2019-05-21T05:09:37.638Z,32.50
2019-05-21T05:10:37.655Z,34.30
2019-05-21T05:11:37.652Z,32.90
2019-05-21T05:12:37.661Z,34.30
2019-05-21T05:13:37.669Z,35.40
2019-05-21T05:14:37.677Z,34.50
2019-05-21T05:15:37.685Z,33.90
2019-05-21T05:16:37.691Z,35.90
2019-05-21T05:17:37.720Z,32.70
2019-05-21T05:18:37.718Z,33.80
2019-05-21T05:19:37.751Z,33.00
2019-05-21T05:20:37.728Z,33.30
2019-05-21T05:21:37.735Z,32.20
2019-05-21T05:22:37.744Z,33.60
2019-05-21T05:23:37.758Z,33.20
2019-05-21T05:24:37.759Z,32.60
2019-05-21T05:25:37.769Z,31.20
2019-05-21T05:26:37.772Z,30.60
2019-05-21T05:27:37.787Z,34.40
2019-05-21T05:28:37.792Z,31.90
2019-05-21T05:29:37.801Z,32.70
2019-05-21T05:30:37.806Z,29.40
2019-05-21T05:31:37.811Z,23.70
2019-05-21T05:32:37.829Z,26.60
2019-05-21T05:33:37.830Z,25.80
2019-05-21T05:34:37.879Z,27.50
2019-05-21T05:35:37.849Z,28.80
2019-05-21T05:36:37.877Z,31.00
2019-05-21T05:37:43.996Z,31.30
2019-05-21T05:38:37.882Z,29.10
2019-05-21T05:39:37.882Z,29.10
2019-05-21T05:40:37.888Z,28.80
2019-05-21T05:41:37.899Z,25.10
2019-05-21T05:42:37.910Z,27.00
2019-05-21T05:43:37.908Z,27.70
2019-05-21T05:44:37.913Z,29.10
2019-05-21T05:45:37.973Z,29.30
2019-05-21T05:46:37.939Z,26.00
2019-05-21T05:47:37.949Z,25.30
2019-05-21T05:48:37.954Z,27.60
2019-05-21T05:49:37.962Z,25.20
2019-05-21T05:50:37.966Z,28.30
2019-05-21T05:51:37.985Z,29.50
2019-05-21T05:52:37.988Z,28.10
2019-05-21T05:53:37.987Z,24.50
2019-05-21T05:54:38.007Z,22.20
2019-05-21T05:55:38.010Z,27.20
2019-05-21T05:56:38.012Z,27.00
2019-05-21T05:57:38.036Z,27.60
2019-05-21T05:58:38.037Z,27.10
2019-05-21T05:59:38.042Z,25.80
2019-05-21T06:00:38.044Z,22.60
2019-05-21T06:01:38.055Z,20.20
2019-05-21T06:02:38.068Z,23.60
2019-05-21T06:03:38.074Z,25.50
2019-05-21T06:04:38.102Z,24.60
2019-05-21T06:05:38.088Z,26.00
2019-05-21T06:06:38.185Z,25.20
2019-05-21T06:07:38.269Z,24.50
2019-05-21T06:08:38.116Z,24.90
2019-05-21T06:09:38.148Z,24.90
2019-05-21T06:10:40.134Z,24.00
2019-05-21T06:11:38.139Z,24.10
2019-05-21T06:12:38.153Z,24.70
2019-05-21T06:13:38.157Z,25.80
2019-05-21T06:14:38.195Z,23.70
2019-05-21T06:15:38.171Z,24.20
2019-05-21T06:16:38.174Z,22.80
2019-05-21T06:17:38.202Z,25.20
2019-05-21T06:18:38.205Z,24.50
2019-05-21T06:19:38.216Z,25.80
2019-05-21T06:20:38.219Z,24.40
2019-05-21T06:21:38.218Z,23.40
2019-05-21T06:22:38.221Z,22.90
2019-05-21T06:23:38.244Z,22.70
2019-05-21T06:24:38.246Z,22.90
2019-05-21T06:25:38.302Z,22.50
2019-05-21T06:26:38.297Z,23.00
2019-05-21T06:27:38.262Z,22.00
2019-05-21T06:28:38.283Z,22.00
2019-05-21T06:29:39.716Z,22.00
2019-05-21T06:30:38.299Z,21.50
2019-05-21T06:31:38.306Z,21.40
2019-05-21T06:32:38.310Z,21.90
2019-05-21T06:33:38.315Z,20.40
2019-05-21T06:34:38.343Z,19.90
2019-05-21T06:35:38.370Z,16.60
2019-05-21T06:36:38.349Z,19.30
2019-05-21T06:37:38.493Z,19.60
2019-05-21T06:38:38.363Z,19.80
2019-05-21T06:39:38.375Z,19.00
2019-05-21T06:40:38.672Z,17.70
2019-05-21T06:41:38.387Z,18.80
2019-05-21T06:42:38.458Z,19.60
2019-05-21T06:43:38.411Z,18.80
2019-05-21T06:44:38.422Z,17.10
2019-05-21T06:45:38.443Z,15.20
2019-05-21T06:46:38.432Z,13.30
2019-05-21T06:47:38.449Z,16.10
2019-05-21T06:48:38.465Z,15.30
2019-05-21T06:49:38.458Z,16.60
2019-05-21T06:50:38.604Z,17.00
2019-05-21T06:51:38.480Z,16.30
2019-05-21T06:52:38.487Z,15.20
2019-05-21T06:53:38.499Z,15.80
2019-05-21T06:54:38.505Z,14.70
2019-05-21T06:55:38.505Z,13.90
2019-05-21T06:56:38.520Z,13.80
2019-05-21T06:57:38.535Z,14.70
2019-05-21T06:58:38.629Z,16.10
2019-05-21T06:59:38.555Z,14.90
2019-05-21T07:00:38.562Z,16.40
2019-05-21T07:01:38.566Z,16.40
2019-05-21T07:02:38.569Z,16.60
2019-05-21T07:03:38.594Z,17.20
2019-05-21T07:04:38.596Z,16.60
2019-05-21T07:05:38.631Z,15.90
2019-05-21T07:06:38.624Z,16.50
2019-05-21T07:07:38.642Z,16.50
2019-05-21T07:08:38.629Z,15.30
2019-05-21T07:09:38.640Z,15.80
2019-05-21T07:10:38.646Z,16.20
2019-05-21T07:11:38.691Z,16.10
2019-05-21T07:12:38.670Z,15.70
2019-05-21T07:13:38.707Z,15.80
2019-05-21T07:14:38.684Z,16.20
2019-05-21T07:15:38.726Z,15.80
2019-05-21T07:16:38.697Z,15.80
2019-05-21T07:17:38.716Z,15.50
2019-05-21T07:18:41.390Z,16.70
2019-05-21T07:19:38.726Z,14.90
2019-05-21T07:20:38.742Z,16.10
2019-05-21T07:21:38.736Z,15.30
2019-05-21T07:22:38.792Z,14.70
2019-05-21T07:23:38.753Z,15.00
2019-05-21T07:24:38.801Z,16.00
2019-05-21T07:25:38.813Z,15.30
2019-05-21T07:26:38.783Z,14.80
2019-05-21T07:27:38.791Z,14.70
2019-05-21T07:28:38.833Z,15.00
2019-05-21T07:29:38.817Z,14.70
2019-05-21T07:30:38.828Z,14.80
2019-05-21T07:31:38.829Z,15.20
2019-05-21T07:32:39.287Z,14.70
2019-05-21T07:33:38.846Z,14.20
2019-05-21T07:34:38.853Z,13.30
2019-05-21T07:35:38.870Z,11.90
2019-05-21T07:36:38.984Z,14.80
2019-05-21T07:37:38.880Z,15.30
2019-05-21T07:38:52.601Z,15.00
2019-05-21T07:39:38.889Z,13.90
2019-05-21T07:40:38.926Z,12.60
2019-05-21T07:41:38.914Z,12.60
2019-05-21T07:42:38.922Z,12.80
2019-05-21T07:43:38.933Z,14.20
2019-05-21T07:44:38.948Z,13.00
2019-05-21T07:45:38.951Z,13.40
2019-05-21T07:46:39.854Z,15.10
2019-05-21T07:47:38.963Z,14.40
2019-05-21T07:48:38.971Z,13.80
2019-05-21T07:49:38.982Z,14.60
2019-05-21T07:50:38.998Z,14.00
2019-05-21T07:51:39.000Z,14.60
2019-05-21T07:52:39.094Z,15.20
2019-05-21T07:53:39.021Z,15.90
2019-05-21T07:54:39.024Z,14.60
2019-05-21T07:55:39.034Z,14.40
2019-05-21T07:56:39.047Z,15.10
2019-05-21T07:57:39.060Z,14.40
2019-05-21T07:58:39.061Z,15.40
2019-05-21T07:59:39.107Z,15.00
2019-05-21T08:00:39.116Z,15.80
2019-05-21T08:01:39.158Z,15.70
2019-05-21T08:02:39.098Z,16.70
2019-05-21T08:03:39.107Z,15.90
2019-05-21T08:04:39.112Z,17.20
2019-05-21T08:05:39.150Z,17.10
2019-05-21T08:06:39.129Z,16.80
2019-05-21T08:07:39.134Z,17.00
2019-05-21T08:08:39.156Z,17.70
2019-05-21T08:09:39.163Z,17.10
2019-05-21T08:10:39.161Z,17.30
2019-05-21T08:11:39.181Z,17.10
2019-05-21T08:12:40.003Z,17.60
2019-05-21T08:13:39.200Z,17.00
2019-05-21T08:14:39.320Z,17.00
2019-05-21T08:15:39.221Z,16.40
2019-05-21T08:16:39.211Z,16.70
2019-05-21T08:17:39.225Z,16.00
2019-05-21T08:18:39.290Z,16.10
2019-05-21T08:19:39.234Z,16.60
2019-05-21T08:20:39.279Z,15.80
2019-05-21T08:21:39.251Z,16.50
2019-05-21T08:22:39.270Z,15.70
2019-05-21T08:23:39.266Z,15.50
2019-05-21T08:24:39.272Z,16.20
2019-05-21T08:25:39.293Z,15.90
2019-05-21T08:26:39.307Z,17.10
2019-05-21T08:27:39.310Z,17.20
2019-05-21T08:28:39.317Z,15.20
2019-05-21T08:29:39.327Z,17.00
2019-05-21T08:30:39.339Z,16.20
2019-05-21T08:31:39.351Z,15.80
2019-05-21T08:32:39.346Z,15.30
2019-05-21T08:33:39.363Z,14.70
2019-05-21T08:34:39.378Z,14.60
2019-05-21T08:35:39.384Z,14.80
2019-05-21T08:36:39.389Z,14.90
2019-05-21T08:37:39.400Z,14.90
2019-05-21T08:38:39.407Z,14.00
2019-05-21T08:40:39.419Z,14.60
2019-05-21T08:41:39.437Z,15.30
2019-05-21T08:42:39.444Z,15.20
2019-05-21T08:43:39.459Z,15.40
2019-05-21T08:44:39.462Z,15.70
2019-05-21T08:45:39.471Z,15.60
2019-05-21T08:46:39.474Z,14.50
2019-05-21T08:47:39.483Z,14.70
2019-05-21T08:48:39.490Z,15.00
2019-05-21T08:49:39.503Z,14.60
2019-05-21T08:50:39.516Z,14.80
2019-05-21T08:51:39.523Z,15.40
2019-05-21T08:52:39.733Z,15.10
2019-05-21T08:53:39.547Z,15.10
2019-05-21T08:54:39.556Z,15.80
2019-05-21T08:55:39.560Z,15.00
2019-05-21T08:56:39.611Z,14.90
2019-05-21T08:57:39.574Z,13.50
2019-05-21T08:58:39.588Z,14.30
2019-05-21T08:59:39.595Z,14.20
2019-05-21T09:00:39.627Z,15.00
2019-05-21T09:01:39.609Z,15.00
2019-05-21T09:02:39.753Z,14.70
2019-05-21T09:03:39.625Z,14.70
2019-05-21T09:04:46.496Z,14.80
2019-05-21T09:05:39.643Z,15.60
2019-05-21T09:06:39.652Z,14.70
2019-05-21T09:07:39.659Z,14.90
2019-05-21T09:08:39.667Z,15.10
2019-05-21T09:09:49.980Z,14.70
2019-05-21T09:10:39.687Z,14.30
2019-05-21T09:11:39.691Z,15.10
2019-05-21T09:12:39.700Z,14.90
2019-05-21T09:13:39.710Z,14.90
2019-05-21T09:14:39.730Z,15.00
2019-05-21T09:15:39.728Z,14.20
2019-05-21T09:16:39.742Z,15.60
2019-05-21T09:17:39.749Z,15.00
2019-05-21T09:18:39.762Z,15.60
2019-05-21T09:19:39.773Z,15.10
2019-05-21T09:20:39.783Z,15.00
2019-05-21T09:21:39.776Z,15.00
2019-05-21T09:22:39.788Z,15.80
2019-05-21T09:23:39.797Z,15.10
2019-05-21T09:24:39.807Z,15.50
2019-05-21T09:25:39.859Z,15.30
2019-05-21T09:26:39.827Z,15.30
2019-05-21T09:27:39.832Z,15.20
2019-05-21T09:28:39.861Z,13.60
2019-05-21T09:29:39.844Z,14.00
2019-05-21T09:30:39.853Z,14.00
2019-05-21T09:31:39.874Z,14.40
2019-05-21T09:32:39.891Z,14.20
2019-05-21T09:33:39.892Z,13.20
2019-05-21T09:34:48.594Z,11.80
2019-05-21T09:35:39.945Z,13.90
2019-05-21T09:36:39.912Z,15.60
2019-05-21T09:37:39.920Z,14.30
2019-05-21T09:38:39.925Z,13.40
2019-05-21T09:39:39.938Z,13.20
2019-05-21T09:40:39.935Z,13.60
2019-05-21T09:41:39.964Z,13.40
2019-05-21T09:42:39.983Z,14.00
2019-05-21T09:43:39.987Z,14.30
2019-05-21T09:44:39.977Z,13.60
2019-05-21T09:45:40.041Z,13.20
2019-05-21T09:46:39.992Z,13.30
2019-05-21T09:47:40.031Z,13.50
2019-05-21T09:48:40.011Z,12.70
2019-05-21T09:49:40.028Z,13.50
2019-05-21T09:50:40.019Z,12.00
2019-05-21T09:51:40.043Z,12.30
2019-05-21T09:52:40.053Z,12.90
2019-05-21T09:53:40.061Z,12.80
2019-05-21T09:54:40.056Z,13.20
2019-05-21T09:55:40.081Z,15.30
2019-05-21T09:56:40.082Z,13.20
2019-05-21T09:57:40.100Z,13.30
2019-05-21T09:58:40.122Z,13.60
2019-05-21T09:59:40.114Z,13.70
2019-05-21T10:00:40.122Z,14.90
2019-05-21T10:01:40.136Z,16.80
2019-05-21T10:02:40.138Z,15.40
2019-05-21T10:03:40.148Z,13.30
2019-05-21T10:04:40.171Z,14.00
2019-05-21T10:05:40.168Z,13.20
2019-05-21T10:06:40.195Z,13.90
2019-05-21T10:07:40.762Z,13.00
2019-05-21T10:08:40.190Z,13.30
2019-05-21T10:09:40.188Z,12.60
2019-05-21T10:10:40.231Z,12.80
2019-05-21T10:11:40.225Z,13.30
2019-05-21T10:12:40.237Z,12.60
2019-05-21T10:13:40.234Z,14.10
2019-05-21T10:14:40.241Z,13.10
2019-05-21T10:15:40.259Z,13.10
2019-05-21T10:16:40.263Z,13.20
2019-05-21T10:17:40.284Z,13.80
2019-05-21T10:18:40.285Z,13.30
2019-05-21T10:19:40.290Z,13.80
2019-05-21T10:20:40.339Z,12.50
2019-05-21T10:21:40.313Z,12.00
2019-05-21T10:22:40.330Z,13.50
2019-05-21T10:23:40.327Z,14.50
2019-05-21T10:24:40.332Z,13.70
2019-05-21T10:25:40.346Z,14.40
2019-05-21T10:26:40.352Z,14.50
2019-05-21T10:27:40.362Z,14.40
2019-05-21T10:28:40.379Z,14.40
2019-05-21T10:29:40.378Z,15.80
2019-05-21T10:30:40.377Z,15.20
2019-05-21T10:31:40.393Z,15.20
2019-05-21T10:32:40.416Z,14.90
2019-05-21T10:33:40.421Z,15.30
2019-05-21T10:34:40.420Z,14.20
2019-05-21T10:35:40.435Z,15.10
2019-05-21T10:36:40.455Z,15.70
2019-05-21T10:37:54.041Z,14.50
2019-05-21T10:38:40.522Z,15.20
2019-05-21T10:39:40.466Z,15.40
2019-05-21T10:40:40.534Z,16.40
2019-05-21T10:41:40.495Z,15.90
2019-05-21T10:42:40.497Z,17.50
2019-05-21T10:43:40.522Z,16.40
2019-05-21T10:44:40.502Z,17.20
2019-05-21T10:45:40.518Z,17.80
2019-05-21T10:46:40.531Z,17.20
2019-05-21T10:47:40.539Z,16.70
2019-05-21T10:48:40.541Z,15.70
2019-05-21T10:49:40.576Z,15.60
2019-05-21T10:50:40.578Z,16.60
2019-05-21T10:51:40.591Z,16.40
2019-05-21T10:52:40.665Z,16.70
2019-05-21T10:53:40.598Z,16.30
2019-05-21T10:54:40.676Z,17.50
2019-05-21T10:55:40.612Z,17.70
2019-05-21T10:56:48.122Z,16.20
2019-05-21T10:57:40.633Z,14.40
2019-05-21T10:58:40.635Z,16.40
2019-05-21T10:59:40.650Z,16.30
2019-05-21T11:00:40.652Z,16.10
2019-05-21T11:01:40.659Z,16.90
2019-05-21T11:02:40.670Z,16.70
2019-05-21T11:03:40.709Z,15.60
2019-05-21T11:04:40.680Z,16.40
2019-05-21T11:05:40.697Z,15.90
2019-05-21T11:06:40.695Z,15.90
2019-05-21T11:07:40.710Z,16.80
2019-05-21T11:08:40.719Z,16.30
2019-05-21T11:09:40.769Z,16.30
2019-05-21T11:10:40.740Z,16.50
2019-05-21T11:11:40.749Z,16.30
2019-05-21T11:12:40.774Z,16.50
2019-05-21T11:13:40.776Z,16.20
2019-05-21T11:14:40.780Z,15.40
2019-05-21T11:15:40.794Z,14.60
2019-05-21T11:16:40.794Z,14.00
2019-05-21T11:17:59.029Z,15.30
2019-05-21T11:18:40.814Z,14.50
2019-05-21T11:19:40.829Z,14.60
2019-05-21T11:20:40.830Z,14.10
2019-05-21T11:21:40.842Z,13.10
2019-05-21T11:22:40.876Z,13.10
2019-05-21T11:23:40.869Z,13.60
2019-05-21T11:24:40.879Z,13.20
2019-05-21T11:25:40.898Z,13.40
2019-05-21T11:26:40.896Z,13.20
2019-05-21T11:27:40.901Z,13.60
2019-05-21T11:28:40.901Z,13.30
2019-05-21T11:29:40.918Z,13.60
2019-05-21T11:30:40.938Z,13.50
2019-05-21T11:31:55.732Z,13.90
2019-05-21T11:32:41.033Z,13.60
2019-05-21T11:33:40.964Z,14.30
2019-05-21T11:34:40.957Z,14.60
2019-05-21T11:35:40.981Z,15.90
2019-05-21T11:36:40.983Z,27.30
2019-05-21T11:37:40.992Z,15.80
2019-05-21T11:38:40.998Z,15.60
2019-05-21T11:39:41.017Z,14.60
2019-05-21T11:40:41.013Z,14.70
2019-05-21T11:41:41.034Z,14.70
2019-05-21T11:42:41.042Z,14.10
2019-05-21T11:43:41.042Z,13.80
2019-05-21T11:44:41.057Z,14.70
2019-05-21T11:45:41.063Z,14.90
2019-05-21T11:46:41.084Z,13.80
2019-05-21T11:47:41.095Z,12.50
2019-05-21T11:48:41.155Z,12.50
2019-05-21T11:49:41.101Z,12.30
2019-05-21T11:50:41.127Z,12.50
2019-05-21T11:51:41.127Z,12.60
2019-05-21T11:52:41.129Z,12.60
2019-05-21T11:53:41.133Z,11.90
2019-05-21T11:54:41.160Z,11.90
2019-05-21T11:55:41.160Z,12.40
2019-05-21T11:56:41.174Z,12.50
2019-05-21T11:57:41.201Z,13.00
2019-05-21T11:58:41.189Z,13.30
2019-05-21T11:59:41.195Z,12.40
2019-05-21T12:00:41.288Z,12.00
2019-05-21T12:01:41.213Z,12.50
2019-05-21T12:02:41.226Z,12.20
2019-05-21T12:03:41.240Z,12.00
2019-05-21T12:04:41.248Z,11.90
2019-05-21T12:05:41.260Z,12.10
2019-05-21T12:06:41.262Z,12.10
2019-05-21T12:07:41.277Z,11.60
2019-05-21T12:08:55.721Z,11.60
2019-05-21T12:09:41.290Z,11.30
2019-05-21T12:10:41.395Z,12.00
2019-05-21T12:11:41.303Z,11.30
2019-05-21T12:12:41.330Z,11.20
2019-05-21T12:13:41.338Z,11.50
2019-05-21T12:14:41.344Z,12.40
2019-05-21T12:15:41.355Z,11.60
2019-05-21T12:16:41.370Z,12.40
2019-05-21T12:17:41.369Z,12.20
2019-05-21T12:18:41.390Z,12.00
2019-05-21T12:19:41.389Z,11.80
2019-05-21T12:20:41.491Z,12.00
2019-05-21T12:21:41.414Z,11.80
2019-05-21T12:22:41.419Z,11.60
2019-05-21T12:23:41.472Z,11.10
2019-05-21T12:24:41.434Z,11.30
2019-05-21T12:25:41.498Z,11.00
2019-05-21T12:26:41.450Z,11.00
2019-05-21T12:27:41.463Z,11.70
2019-05-21T12:28:41.487Z,11.50
2019-05-21T12:29:41.474Z,11.60
2019-05-21T12:30:41.496Z,12.40
2019-05-21T12:31:41.512Z,12.60
2019-05-21T12:32:41.534Z,11.20
2019-05-21T12:33:41.536Z,11.80
2019-05-21T12:34:41.550Z,11.30
2019-05-21T12:35:41.545Z,11.50
2019-05-21T12:36:41.568Z,10.90
2019-05-21T12:37:41.563Z,32.80
2019-05-21T12:38:41.571Z,11.70
2019-05-21T12:39:41.578Z,14.20
2019-05-21T12:40:41.593Z,13.50
2019-05-21T12:41:41.598Z,11.30
2019-05-21T12:42:41.606Z,11.70
2019-05-21T12:43:41.623Z,11.30
2019-05-21T12:44:41.648Z,11.40
2019-05-21T12:45:41.642Z,10.80
2019-05-21T12:46:41.661Z,11.30
2019-05-21T12:47:41.667Z,11.10
2019-05-21T12:48:41.761Z,11.40
2019-05-21T12:49:41.689Z,10.80
2019-05-21T12:50:41.717Z,11.30
2019-05-21T12:51:41.703Z,11.10
2019-05-21T12:52:41.708Z,11.90
2019-05-21T12:53:41.724Z,11.40
2019-05-21T12:54:41.736Z,11.60
2019-05-21T12:55:41.758Z,12.00